GOV weather

Gove Airport
Nhulunbuy, Northern Territory, Australia

Public forecast

Using degrees Celsius for public forecast. Weather courtesy of forecast.io.

Current aviation weather report (METAR) for Gove Airport

Retrieved 2019/12/11 21:30 UTC (26 minutes ago):

YPGV 112130Z AUTO 32007KT 9999 // NCD 29/23 Q1008 RF000/0000

Aviation forecast (TAF) for Gove Airport

Forecast is more than 6 hours old.

Retrieved 2019/12/11 14:00 UTC (8 hours ago):

TAF YPGV 111258Z 1114/1202 VRB03KT 8000 FU FEW012 FM112300 02010KT 9999 FEW020 TEMPO 1114/1122 0500 FU